Airfield :
LOGIN :

Register | Disclaimer

   EN    FR    IT 

 










Legend :    VFR   Marginal VFR   IFR   Intensive IFR   Very Intensive IFR
Visi :
Ceiling :
>= 8 km
>= 3000ft
5 to 8 km
1000 to 3000 ft
1500m to 5 km
500 to 1000 ft
800 to 1500m
200 to 500 ft
< 800m
< 200 ft
Symbols :   Thunderstorms  Fog  Heavy snow  Heavy precipitations  Wind > 20 kt
SIGMETs :     Misc.  Thunderstorms  Icing  Turbulence  Mountain Waves  Volcanic Ashes






- Airport Elevation : 218 ft
- IATA code : LBG


LFPB - Paris / Le Bourget

CURRENT METAR :
  • 101130Z AUTO 18013KT 9999 -RA BKN023/// OVC029/// ///TCU 13/09 Q1009 TEMPO 3000 SHRA

EXPIRED METARs :
  • 101100Z AUTO 19011KT 160V220 9999 BKN021/// OVC029/// ///TCU 12/09 Q1010 TEMPO 3000 SHRA
  • 101030Z AUTO 19010KT 9999 BKN020 BKN025 OVC036 12/09 Q1010 TEMPO 3000 SHRA SCT020TCU
  • 101000Z AUTO 19009KT 9999 OVC019/// ///TCU 11/09 Q1010 TEMPO 3000 SHRA
  • 100930Z AUTO 17007KT 9999 BKN017 OVC023 11/10 Q1010 TEMPO 3000 SHRA SCT020TCU
  • 100900Z AUTO 17005KT 8000 -RA BKN016 BKN022 OVC027 10/10 Q1010 TEMPO 3000 SHRA SCT020TCU

TAF AMD TAF LFPB
Valid from the 10 at 07:00 until the 11 at 06:00 UTC


100744Z 1007/1106 16005KT 4000 -RA BKN012
TEMPO 1007/1009 2000 BKN005
BECMG 1007/1009 6000 NSW BKN020
PROB40
TEMPO 1010/1016 3000 SHRA SCT020TCU
BECMG 1013/1015 22010KT
TEMPO 1016/1020 20015G25KT 2500 SHRA SCT012 BKN020CB
BECMG 1019/1021 36005KT
BECMG 1023/1102 BKN008
TEMPO 1102/1106 BKN004
ATIS : +33 1 48 62 43 92



MET'MAP, your aeronautical weather chart ! - Copyright ORBIFLY December 2007 - Disclaimer

ORBIFLY MET'MAP TEAM :

Programming & Development : Alexandra Zaïnal
Concept & original design : Baudouin d'Aumeries
Assistance for programming : Marc-Olivier Méhu
Technical & hardware support : Manuel Goepfert

Contact : metmap@orbifly.com




SOURCES & CREDITS :

   NOAA